METAR UND TAF INFORMATION
DAAG 211130Z 08018KT 9999 SCT016 FEW023CB 31/23 Q1016

 FLUGHAFENKARTE

 RUNWAY INFORMATION
Runway 05 Runway length 11483 ft Runway width 197 ft
Runway elevation 72 ft Runway displaced threshold 0 ft Runway heading 53
Runway 23 Runway length 11483 ft Runway width 197 ft
Runway elevation 82 ft Runway displaced threshold 0 ft Runway heading 233
Runway 09 Runway length 11483 ft Runway width 148 ft
Runway elevation 56 ft Runway displaced threshold 0 ft Runway heading 92
Runway 27 Runway length 11483 ft Runway width 148 ft
Runway elevation 82 ft Runway displaced threshold 0 ft Runway heading 272

 AIRPORT FREQUENCIES
Type APP Name ALGER APP Frequency 121.4 MHZ
Type GND Name ALGER GND Frequency 121.8 MHZ
Type TWR Name ALGER TWR Frequency 118.7 MHZ

 AIRPORT NEAR NAVIGATION AIDS
Type VOR-DME Name Alger Frequency 112500 KHZ
Type NDB Name Houari Boumediene Frequency 416 KHZ
Type VOR Name Alger Frequency 113900 KHZ
Type NDB Name Houari Boumediene Frequency 370 KHZ